sensor_id;sensor_type;location;lat;lon;timestamp;temperature;humidity
48936;DHT22;34745;52.276;10.528;2023-04-25T00:02:10;8.40;1.00
48936;DHT22;34745;52.276;10.528;2023-04-25T00:04:39;8.40;1.00
48936;DHT22;34745;52.276;10.528;2023-04-25T00:07:07;8.40;1.00
48936;DHT22;34745;52.276;10.528;2023-04-25T00:09:34;8.40;1.00
48936;DHT22;34745;52.276;10.528;2023-04-25T00:12:01;8.40;1.00
48936;DHT22;34745;52.276;10.528;2023-04-25T00:14:28;8.40;1.00
48936;DHT22;34745;52.276;10.528;2023-04-25T00:16:55;8.40;1.00
48936;DHT22;34745;52.276;10.528;2023-04-25T00:19:23;8.30;1.00
48936;DHT22;34745;52.276;10.528;2023-04-25T00:21:51;8.30;1.00
48936;DHT22;34745;52.276;10.528;2023-04-25T00:24:19;8.30;1.00
48936;DHT22;34745;52.276;10.528;2023-04-25T00:26:45;8.20;1.00
48936;DHT22;34745;52.276;10.528;2023-04-25T00:29:13;8.20;1.00
48936;DHT22;34745;52.276;10.528;2023-04-25T00:31:39;8.20;1.00
48936;DHT22;34745;52.276;10.528;2023-04-25T00:34:07;8.10;1.00
48936;DHT22;34745;52.276;10.528;2023-04-25T00:36:35;8.20;1.00
48936;DHT22;34745;52.276;10.528;2023-04-25T00:39:04;8.10;1.00
48936;DHT22;34745;52.276;10.528;2023-04-25T00:41:31;8.10;1.00
48936;DHT22;34745;52.276;10.528;2023-04-25T00:43:59;8.20;1.00
48936;DHT22;34745;52.276;10.528;2023-04-25T00:46:27;8.10;1.00
48936;DHT22;34745;52.276;10.528;2023-04-25T00:48:54;8.10;1.00
48936;DHT22;34745;52.276;10.528;2023-04-25T00:51:21;8.20;1.00
48936;DHT22;34745;52.276;10.528;2023-04-25T00:53:49;8.10;1.00
48936;DHT22;34745;52.276;10.528;2023-04-25T00:56:19;8.10;1.50
48936;DHT22;34745;52.276;10.528;2023-04-25T00:58:48;8.10;2.00
48936;DHT22;34745;52.276;10.528;2023-04-25T01:01:14;8.10;2.90
48936;DHT22;34745;52.276;10.528;2023-04-25T01:03:41;8.10;3.30
48936;DHT22;34745;52.276;10.528;2023-04-25T01:06:10;8.10;2.50
48936;DHT22;34745;52.276;10.528;2023-04-25T01:08:37;8.10;1.00
48936;DHT22;34745;52.276;10.528;2023-04-25T01:11:05;8.10;1.00
48936;DHT22;34745;52.276;10.528;2023-04-25T01:13:34;8.10;1.00
48936;DHT22;34745;52.276;10.528;2023-04-25T01:16:02;8.10;1.00
48936;DHT22;34745;52.276;10.528;2023-04-25T01:18:29;8.10;1.00
48936;DHT22;34745;52.276;10.528;2023-04-25T01:21:02;8.00;1.00
48936;DHT22;34745;52.276;10.528;2023-04-25T01:23:29;8.00;1.00
48936;DHT22;34745;52.276;10.528;2023-04-25T01:25:56;8.00;1.00
48936;DHT22;34745;52.276;10.528;2023-04-25T01:28:23;8.00;1.00
48936;DHT22;34745;52.276;10.528;2023-04-25T01:30:51;7.90;1.00
48936;DHT22;34745;52.276;10.528;2023-04-25T01:33:19;8.00;1.00
48936;DHT22;34745;52.276;10.528;2023-04-25T01:35:47;8.00;1.00
48936;DHT22;34745;52.276;10.528;2023-04-25T01:38:16;8.00;1.00
48936;DHT22;34745;52.276;10.528;2023-04-25T01:40:45;8.00;1.00
48936;DHT22;34745;52.276;10.528;2023-04-25T01:43:12;8.00;1.00
48936;DHT22;34745;52.276;10.528;2023-04-25T01:45:41;8.00;1.00
48936;DHT22;34745;52.276;10.528;2023-04-25T01:48:09;7.90;1.00
48936;DHT22;34745;52.276;10.528;2023-04-25T01:50:37;7.80;4.30
48936;DHT22;34745;52.276;10.528;2023-04-25T01:53:05;7.80;7.50
48936;DHT22;34745;52.276;10.528;2023-04-25T01:55:33;7.80;9.60
48936;DHT22;34745;52.276;10.528;2023-04-25T01:58:02;7.80;12.00
48936;DHT22;34745;52.276;10.528;2023-04-25T02:00:29;7.80;14.80
48936;DHT22;34745;52.276;10.528;2023-04-25T02:02:57;7.80;15.50
48936;DHT22;34745;52.276;10.528;2023-04-25T02:05:24;7.80;19.50
48936;DHT22;34745;52.276;10.528;2023-04-25T02:07:52;7.80;18.90
48936;DHT22;34745;52.276;10.528;2023-04-25T02:10:19;7.80;18.30
48936;DHT22;34745;52.276;10.528;2023-04-25T02:12:48;7.80;24.10
48936;DHT22;34745;52.276;10.528;2023-04-25T02:15:14;7.80;25.90
48936;DHT22;34745;52.276;10.528;2023-04-25T02:17:41;7.80;26.40
48936;DHT22;34745;52.276;10.528;2023-04-25T02:20:09;7.80;32.30
48936;DHT22;34745;52.276;10.528;2023-04-25T02:22:37;7.80;31.60
48936;DHT22;34745;52.276;10.528;2023-04-25T02:25:04;7.80;32.80
48936;DHT22;34745;52.276;10.528;2023-04-25T02:27:32;7.80;38.30
48936;DHT22;34745;52.276;10.528;2023-04-25T02:30:00;7.80;38.50
48936;DHT22;34745;52.276;10.528;2023-04-25T02:32:27;7.80;38.10
48936;DHT22;34745;52.276;10.528;2023-04-25T02:34:54;7.80;39.20
48936;DHT22;34745;52.276;10.528;2023-04-25T02:37:21;7.80;42.50
48936;DHT22;34745;52.276;10.528;2023-04-25T02:39:48;7.80;43.90
48936;DHT22;34745;52.276;10.528;2023-04-25T02:42:15;7.70;50.60
48936;DHT22;34745;52.276;10.528;2023-04-25T02:44:42;7.70;55.80
48936;DHT22;34745;52.276;10.528;2023-04-25T02:47:11;7.70;60.90
48936;DHT22;34745;52.276;10.528;2023-04-25T02:49:38;7.70;59.80
48936;DHT22;34745;52.276;10.528;2023-04-25T02:52:04;7.70;70.40
48936;DHT22;34745;52.276;10.528;2023-04-25T02:54:32;7.70;74.50
48936;DHT22;34745;52.276;10.528;2023-04-25T02:56:59;7.70;81.60
48936;DHT22;34745;52.276;10.528;2023-04-25T02:59:27;7.70;81.40
48936;DHT22;34745;52.276;10.528;2023-04-25T03:01:54;7.70;89.30
48936;DHT22;34745;52.276;10.528;2023-04-25T03:04:22;7.60;92.20
48936;DHT22;34745;52.276;10.528;2023-04-25T03:06:50;7.70;99.90
48936;DHT22;34745;52.276;10.528;2023-04-25T03:09:17;7.60;99.90
48936;DHT22;34745;52.276;10.528;2023-04-25T03:11:45;7.60;99.90
48936;DHT22;34745;52.276;10.528;2023-04-25T03:14:13;7.60;99.90
48936;DHT22;34745;52.276;10.528;2023-04-25T03:16:40;7.50;99.90
48936;DHT22;34745;52.276;10.528;2023-04-25T03:19:07;7.60;99.90
48936;DHT22;34745;52.276;10.528;2023-04-25T03:21:36;7.60;99.90
48936;DHT22;34745;52.276;10.528;2023-04-25T03:24:05;7.60;99.90
48936;DHT22;34745;52.276;10.528;2023-04-25T03:26:32;7.60;99.90
48936;DHT22;34745;52.276;10.528;2023-04-25T03:28:59;7.50;99.90
48936;DHT22;34745;52.276;10.528;2023-04-25T03:31:26;7.50;99.90
48936;DHT22;34745;52.276;10.528;2023-04-25T03:33:53;7.50;99.90
48936;DHT22;34745;52.276;10.528;2023-04-25T03:36:20;7.40;99.90
48936;DHT22;34745;52.276;10.528;2023-04-25T03:38:48;7.40;99.90
48936;DHT22;34745;52.276;10.528;2023-04-25T03:41:15;7.40;99.90
48936;DHT22;34745;52.276;10.528;2023-04-25T03:43:42;7.30;99.90
48936;DHT22;34745;52.276;10.528;2023-04-25T03:46:08;7.40;99.90
48936;DHT22;34745;52.276;10.528;2023-04-25T03:48:36;7.30;99.90
48936;DHT22;34745;52.276;10.528;2023-04-25T03:51:03;7.30;99.90
48936;DHT22;34745;52.276;10.528;2023-04-25T03:53:30;7.30;99.90
48936;DHT22;34745;52.276;10.528;2023-04-25T03:55:58;7.20;99.90
48936;DHT22;34745;52.276;10.528;2023-04-25T03:58:25;7.10;99.90
48936;DHT22;34745;52.276;10.528;2023-04-25T04:00:52;7.10;99.90
48936;DHT22;34745;52.276;10.528;2023-04-25T04:03:19;7.10;99.90
48936;DHT22;34745;52.276;10.528;2023-04-25T04:05:47;7.10;99.90
48936;DHT22;34745;52.276;10.528;2023-04-25T04:08:14;7.10;99.90
48936;DHT22;34745;52.276;10.528;2023-04-25T04:10:44;7.10;99.90
48936;DHT22;34745;52.276;10.528;2023-04-25T04:13:13;7.10;99.90
48936;DHT22;34745;52.276;10.528;2023-04-25T04:15:40;7.10;99.90
48936;DHT22;34745;52.276;10.528;2023-04-25T04:18:07;7.10;99.90
48936;DHT22;34745;52.276;10.528;2023-04-25T04:20:34;7.10;99.90
48936;DHT22;34745;52.276;10.528;2023-04-25T04:23:01;7.20;99.90
48936;DHT22;34745;52.276;10.528;2023-04-25T04:25:28;7.20;99.90
48936;DHT22;34745;52.276;10.528;2023-04-25T04:27:56;7.10;99.90
48936;DHT22;34745;52.276;10.528;2023-04-25T04:30:25;7.10;99.90
48936;DHT22;34745;52.276;10.528;2023-04-25T04:32:52;7.20;99.90
48936;DHT22;34745;52.276;10.528;2023-04-25T04:35:19;7.10;99.90
48936;DHT22;34745;52.276;10.528;2023-04-25T04:37:46;7.10;99.90
48936;DHT22;34745;52.276;10.528;2023-04-25T04:40:13;7.10;99.90
48936;DHT22;34745;52.276;10.528;2023-04-25T04:42:42;7.10;99.90
48936;DHT22;34745;52.276;10.528;2023-04-25T04:45:09;7.20;99.90
48936;DHT22;34745;52.276;10.528;2023-04-25T04:47:38;7.20;99.90
48936;DHT22;34745;52.276;10.528;2023-04-25T04:50:07;7.20;99.90
48936;DHT22;34745;52.276;10.528;2023-04-25T04:52:35;7.30;99.90
48936;DHT22;34745;52.276;10.528;2023-04-25T04:55:03;7.20;99.90
48936;DHT22;34745;52.276;10.528;2023-04-25T04:57:31;7.30;99.90
48936;DHT22;34745;52.276;10.528;2023-04-25T04:59:59;7.20;99.90
48936;DHT22;34745;52.276;10.528;2023-04-25T05:02:27;7.30;99.90
48936;DHT22;34745;52.276;10.528;2023-04-25T05:04:56;7.30;99.90
48936;DHT22;34745;52.276;10.528;2023-04-25T05:07:23;7.30;99.90
48936;DHT22;34745;52.276;10.528;2023-04-25T05:09:50;7.40;99.90
48936;DHT22;34745;52.276;10.528;2023-04-25T05:12:17;7.40;99.90
48936;DHT22;34745;52.276;10.528;2023-04-25T05:14:44;7.40;99.90
48936;DHT22;34745;52.276;10.528;2023-04-25T05:17:11;7.40;99.90
48936;DHT22;34745;52.276;10.528;2023-04-25T05:19:39;7.40;99.90
48936;DHT22;34745;52.276;10.528;2023-04-25T05:22:07;7.40;99.90
48936;DHT22;34745;52.276;10.528;2023-04-25T05:24:34;7.50;90.80
48936;DHT22;34745;52.276;10.528;2023-04-25T05:27:02;7.40;90.40
48936;DHT22;34745;52.276;10.528;2023-04-25T05:29:29;7.40;77.40
48936;DHT22;34745;52.276;10.528;2023-04-25T05:31:56;7.40;78.60
48936;DHT22;34745;52.276;10.528;2023-04-25T05:34:23;7.40;72.00
48936;DHT22;34745;52.276;10.528;2023-04-25T05:36:50;7.50;69.40
48936;DHT22;34745;52.276;10.528;2023-04-25T05:39:18;7.50;64.40
48936;DHT22;34745;52.276;10.528;2023-04-25T05:41:45;7.40;58.20
48936;DHT22;34745;52.276;10.528;2023-04-25T05:44:12;7.50;62.30
48936;DHT22;34745;52.276;10.528;2023-04-25T05:46:39;7.50;51.60
48936;DHT22;34745;52.276;10.528;2023-04-25T05:49:06;7.50;31.90
48936;DHT22;34745;52.276;10.528;2023-04-25T05:51:33;7.50;18.90
48936;DHT22;34745;52.276;10.528;2023-04-25T05:54:00;7.60;26.90
48936;DHT22;34745;52.276;10.528;2023-04-25T05:56:28;7.70;19.70
48936;DHT22;34745;52.276;10.528;2023-04-25T05:58:55;7.80;1.00
48936;DHT22;34745;52.276;10.528;2023-04-25T06:01:23;7.80;1.00
48936;DHT22;34745;52.276;10.528;2023-04-25T06:03:50;7.90;1.00
48936;DHT22;34745;52.276;10.528;2023-04-25T06:06:18;7.90;1.00
48936;DHT22;34745;52.276;10.528;2023-04-25T06:08:45;7.70;1.00
48936;DHT22;34745;52.276;10.528;2023-04-25T06:11:12;7.80;1.00
48936;DHT22;34745;52.276;10.528;2023-04-25T06:13:40;7.70;1.00
48936;DHT22;34745;52.276;10.528;2023-04-25T06:16:07;7.70;1.00
48936;DHT22;34745;52.276;10.528;2023-04-25T06:18:34;7.60;1.00
48936;DHT22;34745;52.276;10.528;2023-04-25T06:21:01;7.50;1.00
48936;DHT22;34745;52.276;10.528;2023-04-25T06:23:29;7.50;1.00
48936;DHT22;34745;52.276;10.528;2023-04-25T06:25:56;7.60;1.00
48936;DHT22;34745;52.276;10.528;2023-04-25T06:28:23;7.60;1.00
48936;DHT22;34745;52.276;10.528;2023-04-25T06:30:52;7.60;1.00
48936;DHT22;34745;52.276;10.528;2023-04-25T06:33:19;7.70;1.00
48936;DHT22;34745;52.276;10.528;2023-04-25T06:35:47;7.90;1.00
48936;DHT22;34745;52.276;10.528;2023-04-25T06:38:15;7.90;1.00
48936;DHT22;34745;52.276;10.528;2023-04-25T06:40:42;8.00;1.00
48936;DHT22;34745;52.276;10.528;2023-04-25T06:43:08;8.00;1.00
48936;DHT22;34745;52.276;10.528;2023-04-25T06:45:36;8.10;1.00
48936;DHT22;34745;52.276;10.528;2023-04-25T06:48:04;8.10;1.00
48936;DHT22;34745;52.276;10.528;2023-04-25T06:50:31;8.00;1.00
48936;DHT22;34745;52.276;10.528;2023-04-25T06:52:58;8.10;1.00
48936;DHT22;34745;52.276;10.528;2023-04-25T06:55:25;8.00;1.00
48936;DHT22;34745;52.276;10.528;2023-04-25T06:57:52;8.10;1.00
48936;DHT22;34745;52.276;10.528;2023-04-25T07:00:20;8.20;1.00
48936;DHT22;34745;52.276;10.528;2023-04-25T07:02:47;8.20;1.00
48936;DHT22;34745;52.276;10.528;2023-04-25T07:05:15;8.40;1.00
48936;DHT22;34745;52.276;10.528;2023-04-25T07:07:45;8.50;1.00
48936;DHT22;34745;52.276;10.528;2023-04-25T07:10:12;8.60;1.00
48936;DHT22;34745;52.276;10.528;2023-04-25T07:12:38;8.60;1.00
48936;DHT22;34745;52.276;10.528;2023-04-25T07:15:07;8.50;1.00
48936;DHT22;34745;52.276;10.528;2023-04-25T07:17:36;8.40;1.00
48936;DHT22;34745;52.276;10.528;2023-04-25T07:20:04;8.30;1.00
48936;DHT22;34745;52.276;10.528;2023-04-25T07:22:33;8.30;1.00
48936;DHT22;34745;52.276;10.528;2023-04-25T07:25:00;8.40;1.00
48936;DHT22;34745;52.276;10.528;2023-04-25T07:27:27;8.50;1.00
48936;DHT22;34745;52.276;10.528;2023-04-25T07:29:54;8.60;1.00
48936;DHT22;34745;52.276;10.528;2023-04-25T07:32:21;8.60;1.00
48936;DHT22;34745;52.276;10.528;2023-04-25T07:34:49;8.70;1.00
48936;DHT22;34745;52.276;10.528;2023-04-25T07:37:17;8.60;1.00
48936;DHT22;34745;52.276;10.528;2023-04-25T07:39:47;8.80;1.00
48936;DHT22;34745;52.276;10.528;2023-04-25T07:42:14;8.80;1.00
48936;DHT22;34745;52.276;10.528;2023-04-25T07:44:41;8.50;1.00
48936;DHT22;34745;52.276;10.528;2023-04-25T07:47:09;8.70;1.00
48936;DHT22;34745;52.276;10.528;2023-04-25T07:49:37;8.80;1.00
48936;DHT22;34745;52.276;10.528;2023-04-25T07:52:05;8.70;1.00
48936;DHT22;34745;52.276;10.528;2023-04-25T07:54:35;8.80;1.00
48936;DHT22;34745;52.276;10.528;2023-04-25T07:57:04;8.80;1.00
48936;DHT22;34745;52.276;10.528;2023-04-25T07:59:33;9.00;1.00
48936;DHT22;34745;52.276;10.528;2023-04-25T08:02:00;9.00;1.00
48936;DHT22;34745;52.276;10.528;2023-04-25T08:04:28;8.80;1.00
48936;DHT22;34745;52.276;10.528;2023-04-25T08:06:55;8.60;1.00
48936;DHT22;34745;52.276;10.528;2023-04-25T08:09:22;8.60;1.00
48936;DHT22;34745;52.276;10.528;2023-04-25T08:11:49;8.50;1.00
48936;DHT22;34745;52.276;10.528;2023-04-25T08:14:17;8.60;1.00
48936;DHT22;34745;52.276;10.528;2023-04-25T08:16:44;8.80;1.00
48936;DHT22;34745;52.276;10.528;2023-04-25T08:19:11;8.80;1.00
48936;DHT22;34745;52.276;10.528;2023-04-25T08:21:38;9.10;1.00
48936;DHT22;34745;52.276;10.528;2023-04-25T08:24:06;9.40;1.00
48936;DHT22;34745;52.276;10.528;2023-04-25T08:26:33;9.50;1.00
48936;DHT22;34745;52.276;10.528;2023-04-25T08:29:03;9.60;1.00
48936;DHT22;34745;52.276;10.528;2023-04-25T08:31:33;9.40;1.00
48936;DHT22;34745;52.276;10.528;2023-04-25T08:34:00;9.20;1.00
48936;DHT22;34745;52.276;10.528;2023-04-25T08:36:27;9.00;1.00
48936;DHT22;34745;52.276;10.528;2023-04-25T08:38:58;8.90;1.00
48936;DHT22;34745;52.276;10.528;2023-04-25T08:41:25;8.80;1.00
48936;DHT22;34745;52.276;10.528;2023-04-25T08:43:53;8.90;1.00
48936;DHT22;34745;52.276;10.528;2023-04-25T08:46:23;8.80;1.00
48936;DHT22;34745;52.276;10.528;2023-04-25T08:48:53;8.50;1.00
48936;DHT22;34745;52.276;10.528;2023-04-25T08:51:24;8.50;1.00
48936;DHT22;34745;52.276;10.528;2023-04-25T08:53:52;8.60;1.00
48936;DHT22;34745;52.276;10.528;2023-04-25T08:56:26;8.60;1.00
48936;DHT22;34745;52.276;10.528;2023-04-25T08:58:55;8.70;1.00
48936;DHT22;34745;52.276;10.528;2023-04-25T09:01:22;9.00;1.00
48936;DHT22;34745;52.276;10.528;2023-04-25T09:03:49;9.20;1.00
48936;DHT22;34745;52.276;10.528;2023-04-25T09:06:18;9.20;1.00
48936;DHT22;34745;52.276;10.528;2023-04-25T09:08:45;9.10;1.00
48936;DHT22;34745;52.276;10.528;2023-04-25T09:11:13;9.00;1.00
48936;DHT22;34745;52.276;10.528;2023-04-25T09:13:40;8.90;1.00
48936;DHT22;34745;52.276;10.528;2023-04-25T09:16:08;8.90;1.00
48936;DHT22;34745;52.276;10.528;2023-04-25T09:18:35;8.90;1.00
48936;DHT22;34745;52.276;10.528;2023-04-25T09:21:06;9.00;1.00
48936;DHT22;34745;52.276;10.528;2023-04-25T09:23:43;9.30;1.00
48936;DHT22;34745;52.276;10.528;2023-04-25T09:26:14;9.70;1.00
48936;DHT22;34745;52.276;10.528;2023-04-25T09:28:41;9.90;1.00
48936;DHT22;34745;52.276;10.528;2023-04-25T09:31:10;9.80;1.00
48936;DHT22;34745;52.276;10.528;2023-04-25T09:33:38;9.70;1.00
48936;DHT22;34745;52.276;10.528;2023-04-25T09:36:07;9.60;1.00
48936;DHT22;34745;52.276;10.528;2023-04-25T09:38:42;9.40;1.00
48936;DHT22;34745;52.276;10.528;2023-04-25T09:41:10;9.30;1.00
48936;DHT22;34745;52.276;10.528;2023-04-25T09:43:37;9.30;1.00
48936;DHT22;34745;52.276;10.528;2023-04-25T09:46:08;9.30;1.00
48936;DHT22;34745;52.276;10.528;2023-04-25T09:48:36;9.30;1.00
48936;DHT22;34745;52.276;10.528;2023-04-25T09:51:05;9.20;1.00
48936;DHT22;34745;52.276;10.528;2023-04-25T09:53:36;9.30;1.00
48936;DHT22;34745;52.276;10.528;2023-04-25T09:56:07;9.30;1.00
48936;DHT22;34745;52.276;10.528;2023-04-25T09:58:35;9.10;1.00
48936;DHT22;34745;52.276;10.528;2023-04-25T10:01:04;9.10;1.00
48936;DHT22;34745;52.276;10.528;2023-04-25T10:03:32;9.10;1.00
48936;DHT22;34745;52.276;10.528;2023-04-25T10:06:01;9.20;1.00
48936;DHT22;34745;52.276;10.528;2023-04-25T10:08:31;9.10;1.00
48936;DHT22;34745;52.276;10.528;2023-04-25T10:11:00;9.20;1.00
48936;DHT22;34745;52.276;10.528;2023-04-25T10:13:29;9.30;1.00
48936;DHT22;34745;52.276;10.528;2023-04-25T10:15:57;9.70;1.00
48936;DHT22;34745;52.276;10.528;2023-04-25T10:18:25;10.00;1.00
48936;DHT22;34745;52.276;10.528;2023-04-25T10:20:54;10.30;1.00
48936;DHT22;34745;52.276;10.528;2023-04-25T10:23:21;10.10;1.00
48936;DHT22;34745;52.276;10.528;2023-04-25T10:25:49;10.00;1.00
48936;DHT22;34745;52.276;10.528;2023-04-25T10:28:16;10.00;1.00
48936;DHT22;34745;52.276;10.528;2023-04-25T10:30:58;9.60;1.00
48936;DHT22;34745;52.276;10.528;2023-04-25T10:33:36;9.50;1.00
48936;DHT22;34745;52.276;10.528;2023-04-25T10:36:11;9.60;1.00
48936;DHT22;34745;52.276;10.528;2023-04-25T10:38:38;9.60;1.00
48936;DHT22;34745;52.276;10.528;2023-04-25T10:41:06;9.60;1.00
48936;DHT22;34745;52.276;10.528;2023-04-25T10:43:39;9.50;1.00
48936;DHT22;34745;52.276;10.528;2023-04-25T10:46:16;9.80;1.00
48936;DHT22;34745;52.276;10.528;2023-04-25T10:48:48;9.90;1.00
48936;DHT22;34745;52.276;10.528;2023-04-25T10:51:17;10.00;1.00
48936;DHT22;34745;52.276;10.528;2023-04-25T10:53:45;10.20;1.00
48936;DHT22;34745;52.276;10.528;2023-04-25T10:56:17;10.10;1.00
48936;DHT22;34745;52.276;10.528;2023-04-25T10:58:45;10.00;1.00
48936;DHT22;34745;52.276;10.528;2023-04-25T11:01:20;10.10;1.00
48936;DHT22;34745;52.276;10.528;2023-04-25T11:03:47;10.20;1.00
48936;DHT22;34745;52.276;10.528;2023-04-25T11:06:23;10.30;99.90
48936;DHT22;34745;52.276;10.528;2023-04-25T11:08:51;10.20;99.90
48936;DHT22;34745;52.276;10.528;2023-04-25T11:11:19;10.10;1.00
48936;DHT22;34745;52.276;10.528;2023-04-25T11:13:48;9.90;1.00
48936;DHT22;34745;52.276;10.528;2023-04-25T11:16:18;9.90;1.00
48936;DHT22;34745;52.276;10.528;2023-04-25T11:18:56;9.90;1.00
48936;DHT22;34745;52.276;10.528;2023-04-25T11:21:25;10.00;1.00
48936;DHT22;34745;52.276;10.528;2023-04-25T11:23:53;9.90;1.00
48936;DHT22;34745;52.276;10.528;2023-04-25T11:26:20;10.00;1.00
48936;DHT22;34745;52.276;10.528;2023-04-25T11:28:49;9.90;1.00
48936;DHT22;34745;52.276;10.528;2023-04-25T11:31:16;9.80;1.00
48936;DHT22;34745;52.276;10.528;2023-04-25T11:33:48;9.60;1.00
48936;DHT22;34745;52.276;10.528;2023-04-25T11:36:15;9.50;1.00
48936;DHT22;34745;52.276;10.528;2023-04-25T11:38:42;9.30;1.00
48936;DHT22;34745;52.276;10.528;2023-04-25T11:41:09;9.10;1.00
48936;DHT22;34745;52.276;10.528;2023-04-25T11:43:36;9.00;1.00
48936;DHT22;34745;52.276;10.528;2023-04-25T11:46:06;8.90;1.00
48936;DHT22;34745;52.276;10.528;2023-04-25T11:48:37;9.00;1.00
48936;DHT22;34745;52.276;10.528;2023-04-25T11:51:06;9.00;1.00
48936;DHT22;34745;52.276;10.528;2023-04-25T11:53:33;9.00;1.00
48936;DHT22;34745;52.276;10.528;2023-04-25T11:56:00;9.20;1.00
48936;DHT22;34745;52.276;10.528;2023-04-25T11:58:27;9.40;1.00
48936;DHT22;34745;52.276;10.528;2023-04-25T12:00:54;9.70;1.00
48936;DHT22;34745;52.276;10.528;2023-04-25T12:03:25;10.10;1.00
48936;DHT22;34745;52.276;10.528;2023-04-25T12:06:02;10.40;1.00
48936;DHT22;34745;52.276;10.528;2023-04-25T12:08:31;10.60;1.00
48936;DHT22;34745;52.276;10.528;2023-04-25T12:10:59;11.00;1.00
48936;DHT22;34745;52.276;10.528;2023-04-25T12:13:26;11.70;1.00
48936;DHT22;34745;52.276;10.528;2023-04-25T12:15:55;12.00;99.90
48936;DHT22;34745;52.276;10.528;2023-04-25T12:18:24;12.20;99.90
48936;DHT22;34745;52.276;10.528;2023-04-25T12:20:54;11.50;99.90
48936;DHT22;34745;52.276;10.528;2023-04-25T12:23:26;10.90;99.90
48936;DHT22;34745;52.276;10.528;2023-04-25T12:25:55;10.90;99.90
48936;DHT22;34745;52.276;10.528;2023-04-25T12:28:24;10.80;1.00
48936;DHT22;34745;52.276;10.528;2023-04-25T12:30:53;11.20;99.90
48936;DHT22;34745;52.276;10.528;2023-04-25T12:33:20;11.90;99.90
48936;DHT22;34745;52.276;10.528;2023-04-25T12:35:47;12.00;99.90
48936;DHT22;34745;52.276;10.528;2023-04-25T12:38:21;11.80;99.90
48936;DHT22;34745;52.276;10.528;2023-04-25T12:40:48;11.40;99.90
48936;DHT22;34745;52.276;10.528;2023-04-25T12:43:16;11.10;99.90
48936;DHT22;34745;52.276;10.528;2023-04-25T12:45:44;10.60;99.90
48936;DHT22;34745;52.276;10.528;2023-04-25T12:48:11;10.30;1.00
48936;DHT22;34745;52.276;10.528;2023-04-25T12:50:39;10.00;1.00
48936;DHT22;34745;52.276;10.528;2023-04-25T12:53:05;9.80;1.00
48936;DHT22;34745;52.276;10.528;2023-04-25T12:55:32;9.60;1.00
48936;DHT22;34745;52.276;10.528;2023-04-25T12:57:59;9.50;1.00
48936;DHT22;34745;52.276;10.528;2023-04-25T13:00:28;9.40;1.00
48936;DHT22;34745;52.276;10.528;2023-04-25T13:02:55;9.30;1.00
48936;DHT22;34745;52.276;10.528;2023-04-25T13:05:22;9.30;1.00
48936;DHT22;34745;52.276;10.528;2023-04-25T13:07:49;9.40;1.00
48936;DHT22;34745;52.276;10.528;2023-04-25T13:10:16;9.60;1.00
48936;DHT22;34745;52.276;10.528;2023-04-25T13:12:44;11.90;1.00
48936;DHT22;34745;52.276;10.528;2023-04-25T13:15:13;14.00;99.90
48936;DHT22;34745;52.276;10.528;2023-04-25T13:17:43;15.60;99.90
48936;DHT22;34745;52.276;10.528;2023-04-25T13:20:11;16.40;99.90
48936;DHT22;34745;52.276;10.528;2023-04-25T13:22:38;17.00;99.90
48936;DHT22;34745;52.276;10.528;2023-04-25T13:25:07;16.10;99.90
48936;DHT22;34745;52.276;10.528;2023-04-25T13:27:36;16.50;99.90
48936;DHT22;34745;52.276;10.528;2023-04-25T13:30:04;15.50;99.90
48936;DHT22;34745;52.276;10.528;2023-04-25T13:32:34;14.50;99.90
48936;DHT22;34745;52.276;10.528;2023-04-25T13:35:05;13.80;99.90
48936;DHT22;34745;52.276;10.528;2023-04-25T13:37:36;14.10;99.90
48936;DHT22;34745;52.276;10.528;2023-04-25T13:40:05;14.10;99.90
48936;DHT22;34745;52.276;10.528;2023-04-25T13:42:32;12.70;99.90
48936;DHT22;34745;52.276;10.528;2023-04-25T13:45:00;12.20;1.00
48936;DHT22;34745;52.276;10.528;2023-04-25T13:47:27;12.50;1.00
48936;DHT22;34745;52.276;10.528;2023-04-25T13:49:54;12.10;1.00
48936;DHT22;34745;52.276;10.528;2023-04-25T13:52:22;11.50;1.00
48936;DHT22;34745;52.276;10.528;2023-04-25T13:54:51;11.30;1.00
48936;DHT22;34745;52.276;10.528;2023-04-25T13:57:18;11.20;1.00
48936;DHT22;34745;52.276;10.528;2023-04-25T13:59:45;11.40;1.00
48936;DHT22;34745;52.276;10.528;2023-04-25T14:02:13;12.90;99.90
48936;DHT22;34745;52.276;10.528;2023-04-25T14:04:40;14.00;99.90
48936;DHT22;34745;52.276;10.528;2023-04-25T14:07:07;15.70;99.90
48936;DHT22;34745;52.276;10.528;2023-04-25T14:09:36;16.10;99.90
48936;DHT22;34745;52.276;10.528;2023-04-25T14:12:03;15.10;99.90
48936;DHT22;34745;52.276;10.528;2023-04-25T14:14:30;13.10;99.90
48936;DHT22;34745;52.276;10.528;2023-04-25T14:16:57;12.30;99.90
48936;DHT22;34745;52.276;10.528;2023-04-25T14:19:24;11.30;99.90
48936;DHT22;34745;52.276;10.528;2023-04-25T14:21:51;10.90;99.90
48936;DHT22;34745;52.276;10.528;2023-04-25T14:24:18;10.60;99.90
48936;DHT22;34745;52.276;10.528;2023-04-25T14:26:47;10.60;99.90
48936;DHT22;34745;52.276;10.528;2023-04-25T14:29:14;10.60;1.00
48936;DHT22;34745;52.276;10.528;2023-04-25T14:31:41;11.80;99.90
48936;DHT22;34745;52.276;10.528;2023-04-25T14:34:08;13.30;99.90
48936;DHT22;34745;52.276;10.528;2023-04-25T14:36:35;14.00;99.90
48936;DHT22;34745;52.276;10.528;2023-04-25T14:39:03;14.70;99.90
48936;DHT22;34745;52.276;10.528;2023-04-25T14:41:32;14.90;99.90
48936;DHT22;34745;52.276;10.528;2023-04-25T14:44:00;15.70;99.90
48936;DHT22;34745;52.276;10.528;2023-04-25T14:46:28;15.80;99.90
48936;DHT22;34745;52.276;10.528;2023-04-25T14:48:55;15.80;99.90
48936;DHT22;34745;52.276;10.528;2023-04-25T14:51:23;15.60;99.90
48936;DHT22;34745;52.276;10.528;2023-04-25T14:53:50;16.10;99.90
48936;DHT22;34745;52.276;10.528;2023-04-25T14:56:18;15.50;99.90
48936;DHT22;34745;52.276;10.528;2023-04-25T14:58:45;14.40;99.90
48936;DHT22;34745;52.276;10.528;2023-04-25T15:01:14;13.30;99.90
48936;DHT22;34745;52.276;10.528;2023-04-25T15:03:41;12.80;99.90
48936;DHT22;34745;52.276;10.528;2023-04-25T15:06:09;12.30;1.00
48936;DHT22;34745;52.276;10.528;2023-04-25T15:08:36;11.60;1.00
48936;DHT22;34745;52.276;10.528;2023-04-25T15:11:03;11.00;1.00
48936;DHT22;34745;52.276;10.528;2023-04-25T15:13:32;10.70;1.00
48936;DHT22;34745;52.276;10.528;2023-04-25T15:15:59;10.50;1.00
48936;DHT22;34745;52.276;10.528;2023-04-25T15:18:28;10.40;1.00
48936;DHT22;34745;52.276;10.528;2023-04-25T15:20:55;10.40;1.00
48936;DHT22;34745;52.276;10.528;2023-04-25T15:23:22;10.60;1.00
48936;DHT22;34745;52.276;10.528;2023-04-25T15:25:52;10.40;1.00
48936;DHT22;34745;52.276;10.528;2023-04-25T15:28:19;10.70;1.00
48936;DHT22;34745;52.276;10.528;2023-04-25T15:30:48;11.00;1.00
48936;DHT22;34745;52.276;10.528;2023-04-25T15:33:15;11.30;1.00
48936;DHT22;34745;52.276;10.528;2023-04-25T15:35:44;11.60;1.00
48936;DHT22;34745;52.276;10.528;2023-04-25T15:38:11;12.90;1.00
48936;DHT22;34745;52.276;10.528;2023-04-25T15:40:40;14.70;1.40